createdAt,value
2019-02-25T00:02:28.957Z,6.48
2019-02-25T00:05:14.441Z,6.59
2019-02-25T00:08:00.556Z,6.55
2019-02-25T00:10:46.612Z,6.58
2019-02-25T00:13:32.868Z,6.83
2019-02-25T00:16:19.575Z,6.78
2019-02-25T00:19:05.367Z,6.66
2019-02-25T00:21:51.101Z,6.12
2019-02-25T00:24:37.696Z,6.12
2019-02-25T00:27:23.704Z,6.02
2019-02-25T00:30:09.744Z,6.17
2019-02-25T00:32:55.800Z,5.79
2019-02-25T00:35:42.888Z,5.38
2019-02-25T00:38:29.015Z,5.66
2019-02-25T00:41:15.113Z,5.82
2019-02-25T00:44:01.197Z,5.45
2019-02-25T00:46:47.763Z,5.13
2019-02-25T00:49:34.213Z,5.07
2019-02-25T00:52:19.951Z,5.20
2019-02-25T00:55:06.352Z,5.05
2019-02-25T00:57:52.234Z,5.27
2019-02-25T01:00:38.321Z,5.45
2019-02-25T01:03:24.631Z,4.79
2019-02-25T01:06:10.664Z,5.10
2019-02-25T01:08:56.686Z,4.77
2019-02-25T01:11:42.572Z,5.19
2019-02-25T01:14:28.974Z,5.19
2019-02-25T01:17:14.836Z,4.85
2019-02-25T01:20:00.915Z,4.67
2019-02-25T01:22:47.092Z,4.66
2019-02-25T01:25:33.093Z,4.76
2019-02-25T01:28:18.857Z,4.72
2019-02-25T01:31:05.393Z,4.91
2019-02-25T01:33:51.473Z,5.19
2019-02-25T01:36:37.659Z,5.33
2019-02-25T01:39:24.104Z,4.73
2019-02-25T01:42:10.209Z,4.69
2019-02-25T01:44:55.973Z,4.40
2019-02-25T01:47:42.432Z,4.50
2019-02-25T01:50:28.439Z,4.78
2019-02-25T01:53:14.250Z,5.12
2019-02-25T01:56:00.751Z,5.31
2019-02-25T01:58:46.609Z,5.10
2019-02-25T02:01:32.602Z,4.82
2019-02-25T02:04:18.989Z,4.82
2019-02-25T02:07:04.837Z,4.87
2019-02-25T02:09:51.136Z,4.41
2019-02-25T02:12:37.641Z,4.38
2019-02-25T02:15:23.628Z,4.66
2019-02-25T02:18:09.702Z,4.66
2019-02-25T02:20:55.876Z,4.15
2019-02-25T02:23:41.971Z,4.14
2019-02-25T02:26:28.161Z,4.14
2019-02-25T02:29:14.358Z,4.26
2019-02-25T02:32:00.339Z,4.22
2019-02-25T02:34:46.252Z,4.12
2019-02-25T02:37:32.148Z,4.16
2019-02-25T02:40:18.493Z,4.16
2019-02-25T02:43:05.014Z,4.16
2019-02-25T02:46:02.139Z,4.18
2019-02-25T02:48:51.691Z,4.18
2019-02-25T02:51:37.663Z,4.16
2019-02-25T02:54:23.424Z,3.82
2019-02-25T02:57:09.389Z,3.83
2019-02-25T02:59:55.929Z,3.80
2019-02-25T03:02:41.945Z,3.80
2019-02-25T03:05:27.757Z,3.89
2019-02-25T03:08:13.742Z,3.87
2019-02-25T03:10:59.918Z,4.22
2019-02-25T03:13:45.686Z,4.05
2019-02-25T03:16:32.217Z,4.05
2019-02-25T03:19:18.266Z,4.14
2019-02-25T03:22:04.219Z,3.72
2019-02-25T03:24:50.548Z,3.90
2019-02-25T03:27:37.193Z,3.90
2019-02-25T03:30:22.813Z,3.90
2019-02-25T03:33:09.574Z,3.42
2019-02-25T03:35:55.522Z,3.42
2019-02-25T03:38:41.461Z,3.81
2019-02-25T03:41:28.120Z,3.81
2019-02-25T03:44:14.180Z,3.55
2019-02-25T03:47:00.139Z,3.65
2019-02-25T03:49:46.454Z,3.56
2019-02-25T03:52:32.455Z,3.66
2019-02-25T03:55:18.333Z,3.82
2019-02-25T03:58:04.508Z,3.54
2019-02-25T04:00:50.632Z,3.53
2019-02-25T04:03:36.455Z,3.50
2019-02-25T04:06:22.934Z,3.43
2019-02-25T04:09:08.973Z,3.43
2019-02-25T04:11:54.925Z,3.54
2019-02-25T04:14:41.129Z,3.71
2019-02-25T04:17:26.975Z,3.71
2019-02-25T04:20:13.558Z,3.79
2019-02-25T04:22:59.788Z,4.00
2019-02-25T04:25:45.741Z,3.63
2019-02-25T04:28:31.702Z,3.20
2019-02-25T04:31:18.062Z,3.23
2019-02-25T04:34:03.990Z,3.23
2019-02-25T04:36:50.097Z,3.31
2019-02-25T04:39:36.394Z,3.22
2019-02-25T04:42:22.596Z,3.09
2019-02-25T04:45:11.350Z,3.10
2019-02-25T04:47:57.706Z,3.04
2019-02-25T04:50:43.354Z,3.13
2019-02-25T04:53:29.143Z,3.33
2019-02-25T04:56:15.600Z,3.31
2019-02-25T04:59:02.017Z,3.03
2019-02-25T05:01:47.804Z,3.16
2019-02-25T05:04:34.170Z,3.50
2019-02-25T05:07:20.022Z,3.74
2019-02-25T05:10:06.463Z,3.70
2019-02-25T05:13:00.338Z,3.64
2019-02-25T05:15:46.275Z,2.95
2019-02-25T05:18:32.325Z,3.04
2019-02-25T05:21:18.627Z,3.26
2019-02-25T05:24:04.846Z,3.21
2019-02-25T05:26:50.466Z,3.24
2019-02-25T05:29:36.701Z,3.26
2019-02-25T05:32:22.833Z,3.47
2019-02-25T05:35:09.178Z,3.39
2019-02-25T05:37:55.000Z,3.36
2019-02-25T05:40:41.633Z,3.39
2019-02-25T05:43:27.452Z,3.39
2019-02-25T05:46:13.869Z,3.10
2019-02-25T05:48:59.647Z,3.49
2019-02-25T05:51:45.519Z,3.55
2019-02-25T05:54:31.994Z,3.45
2019-02-25T05:57:17.987Z,3.22
2019-02-25T06:00:04.479Z,3.30
2019-02-25T06:02:51.129Z,2.45
2019-02-25T06:05:36.877Z,2.45
2019-02-25T06:08:22.772Z,2.65
2019-02-25T06:11:09.238Z,2.70
2019-02-25T06:13:55.374Z,2.67
2019-02-25T06:16:40.970Z,2.85
2019-02-25T06:19:28.924Z,3.10
2019-02-25T06:22:16.334Z,3.31
2019-02-25T06:25:02.122Z,2.91
2019-02-25T06:27:48.334Z,2.63
2019-02-25T06:30:34.782Z,2.76
2019-02-25T06:33:20.866Z,2.99
2019-02-25T06:36:07.143Z,3.17
2019-02-25T06:38:52.807Z,3.16
2019-02-25T06:41:38.731Z,3.21
2019-02-25T06:44:25.111Z,3.46
2019-02-25T06:47:11.015Z,3.46
2019-02-25T06:49:57.214Z,3.44
2019-02-25T06:52:43.563Z,3.50
2019-02-25T06:55:29.485Z,3.84
2019-02-25T06:58:15.498Z,4.11
2019-02-25T07:01:01.890Z,4.23
2019-02-25T07:04:07.215Z,4.69
2019-02-25T07:07:03.531Z,4.97
2019-02-25T07:10:18.014Z,5.63
2019-02-25T07:13:14.939Z,5.63
2019-02-25T07:16:18.710Z,5.93
2019-02-25T07:19:15.002Z,6.20
2019-02-25T07:22:16.073Z,6.37
2019-02-25T07:25:21.730Z,6.90
2019-02-25T07:28:36.753Z,7.11
2019-02-25T07:32:00.587Z,7.13
2019-02-25T07:34:56.907Z,7.86
2019-02-25T07:38:05.302Z,7.94
2019-02-25T07:41:09.199Z,8.11
2019-02-25T07:44:13.079Z,9.71
2019-02-25T07:47:17.079Z,10.12
2019-02-25T07:50:18.702Z,12.27
2019-02-25T07:53:18.019Z,12.25
2019-02-25T07:56:11.654Z,12.51
2019-02-25T07:59:12.201Z,13.77
2019-02-25T08:02:23.019Z,13.08
2019-02-25T08:05:46.584Z,14.28
2019-02-25T08:08:58.267Z,14.66
2019-02-25T08:12:06.579Z,14.48
2019-02-25T08:14:59.167Z,14.03
2019-02-25T08:18:10.363Z,15.36
2019-02-25T08:21:14.715Z,15.47
2019-02-25T08:24:18.675Z,16.17
2019-02-25T08:27:30.747Z,15.97
2019-02-25T08:30:42.100Z,15.66
2019-02-25T08:33:45.982Z,16.02
2019-02-25T08:37:18.063Z,17.50
2019-02-25T08:40:42.027Z,17.10
2019-02-25T08:43:35.221Z,17.82
2019-02-25T08:46:50.203Z,18.00
2019-02-25T08:50:01.768Z,16.35
2019-02-25T08:52:48.202Z,17.66
2019-02-25T08:55:37.661Z,18.57
2019-02-25T08:58:24.373Z,17.63
2019-02-25T09:01:10.420Z,17.73
2019-02-25T09:03:56.563Z,18.46
2019-02-25T09:06:42.519Z,19.35
2019-02-25T09:09:28.295Z,19.14
2019-02-25T09:12:14.690Z,18.66
2019-02-25T09:15:00.909Z,19.21
2019-02-25T09:17:47.794Z,19.45
2019-02-25T09:20:33.803Z,18.56
2019-02-25T09:23:19.774Z,16.26
2019-02-25T09:26:05.663Z,15.61
2019-02-25T09:28:52.283Z,15.39
2019-02-25T09:31:38.348Z,13.91
2019-02-25T09:34:25.077Z,13.55
2019-02-25T09:37:11.737Z,13.82
2019-02-25T09:39:57.291Z,14.39
2019-02-25T09:42:43.240Z,15.28
2019-02-25T09:45:30.463Z,16.61
2019-02-25T09:48:16.451Z,15.92
2019-02-25T09:51:02.715Z,17.72
2019-02-25T09:53:51.639Z,17.29
2019-02-25T09:59:29.223Z,15.64
2019-02-25T10:02:15.503Z,14.53
2019-02-25T10:05:01.396Z,16.16
2019-02-25T10:07:47.318Z,16.35
2019-02-25T10:10:33.416Z,17.26
2019-02-25T10:13:19.255Z,18.05
2019-02-25T10:16:05.099Z,18.27
2019-02-25T10:18:51.305Z,17.95
2019-02-25T10:21:37.340Z,18.18
2019-02-25T10:24:26.127Z,17.61
2019-02-25T10:27:12.792Z,19.44
2019-02-25T10:29:58.623Z,16.44
2019-02-25T10:32:44.592Z,16.47
2019-02-25T10:35:30.857Z,18.45
2019-02-25T10:38:16.652Z,18.27
2019-02-25T10:41:02.559Z,18.01
2019-02-25T10:43:49.995Z,18.83
2019-02-25T10:46:35.846Z,19.71
2019-02-25T10:49:22.562Z,19.49
2019-02-25T10:52:10.829Z,19.14
2019-02-25T10:54:58.283Z,19.34
2019-02-25T10:57:43.980Z,19.14
2019-02-25T11:00:30.338Z,18.35
2019-02-25T11:03:17.847Z,19.39
2019-02-25T11:06:04.391Z,18.31
2019-02-25T11:08:57.004Z,18.76
2019-02-25T11:11:42.786Z,17.78
2019-02-25T11:14:28.949Z,19.79
2019-02-25T11:17:16.158Z,20.51
2019-02-25T11:20:03.724Z,20.74
2019-02-25T11:22:50.000Z,20.13
2019-02-25T11:25:35.746Z,19.73
2019-02-25T11:28:25.365Z,20.76
2019-02-25T11:31:09.344Z,20.41
2019-02-25T11:33:56.446Z,20.64
2019-02-25T11:36:43.306Z,20.79
2019-02-25T11:39:30.118Z,20.20
2019-02-25T11:42:20.265Z,20.21
2019-02-25T11:45:05.765Z,19.29
2019-02-25T11:47:51.612Z,18.05
2019-02-25T11:50:37.533Z,19.88
2019-02-25T11:53:24.546Z,19.24
2019-02-25T11:56:10.760Z,17.67
2019-02-25T11:58:56.629Z,18.29
2019-02-25T12:01:42.201Z,17.93
2019-02-25T12:04:28.072Z,17.76
2019-02-25T12:07:13.960Z,17.46
2019-02-25T12:10:00.348Z,18.72
2019-02-25T12:12:45.939Z,20.90
2019-02-25T12:15:31.723Z,19.03
2019-02-25T12:18:17.756Z,18.29
2019-02-25T12:21:03.920Z,19.45
2019-02-25T12:23:49.672Z,18.03
2019-02-25T12:26:35.879Z,19.50
2019-02-25T12:29:21.839Z,19.91
2019-02-25T12:32:07.741Z,19.45
2019-02-25T12:34:53.649Z,19.52
2019-02-25T12:37:39.094Z,18.20
2019-02-25T12:40:24.543Z,19.00
2019-02-25T12:43:10.164Z,19.11
2019-02-25T12:45:56.084Z,20.22
2019-02-25T12:48:41.633Z,17.73
2019-02-25T12:51:27.343Z,18.68
2019-02-25T12:54:13.125Z,18.75
2019-02-25T12:56:59.304Z,18.30
2019-02-25T12:59:44.705Z,20.55
2019-02-25T13:02:30.105Z,19.10
2019-02-25T13:05:16.324Z,18.25
2019-02-25T13:08:01.870Z,20.24
2019-02-25T13:10:47.242Z,18.63
2019-02-25T13:13:32.965Z,18.53
2019-02-25T13:16:18.239Z,19.78
2019-02-25T13:19:03.581Z,21.45
2019-02-25T13:21:49.802Z,22.55
2019-02-25T13:24:37.263Z,21.71
2019-02-25T13:27:22.921Z,21.91
2019-02-25T13:30:11.554Z,18.76
2019-02-25T13:32:56.853Z,19.35
2019-02-25T13:35:42.265Z,19.37
2019-02-25T13:38:27.876Z,21.18
2019-02-25T13:41:13.499Z,22.02
2019-02-25T13:43:58.945Z,21.41
2019-02-25T13:46:44.823Z,19.72
2019-02-25T13:49:30.693Z,19.07
2019-02-25T13:52:16.089Z,20.00
2019-02-25T13:55:01.771Z,20.11
2019-02-25T13:57:47.275Z,21.86
2019-02-25T14:00:32.658Z,21.56
2019-02-25T14:03:18.550Z,20.50
2019-02-25T14:06:03.842Z,21.65
2019-02-25T14:08:49.252Z,21.33
2019-02-25T14:11:35.539Z,22.47
2019-02-25T14:14:21.090Z,21.03
2019-02-25T14:17:09.025Z,20.99
2019-02-25T14:19:54.879Z,21.19
2019-02-25T14:22:40.248Z,21.21
2019-02-25T14:25:28.414Z,21.51
2019-02-25T14:28:14.568Z,20.74
2019-02-25T14:30:59.998Z,20.30
2019-02-25T14:33:45.962Z,19.90
2019-02-25T14:36:31.534Z,20.54
2019-02-25T14:39:24.968Z,21.06
2019-02-25T14:42:11.915Z,21.05
2019-02-25T14:44:58.576Z,21.35
2019-02-25T14:47:46.720Z,20.39
2019-02-25T14:50:32.092Z,20.98
2019-02-25T14:53:17.612Z,21.15
2019-02-25T14:56:04.173Z,20.07
2019-02-25T14:58:49.790Z,19.52
2019-02-25T15:01:35.279Z,19.46
2019-02-25T15:04:20.862Z,18.96
2019-02-25T15:07:09.135Z,18.84
2019-02-25T15:09:57.938Z,18.44
2019-02-25T15:12:43.551Z,17.69
2019-02-25T15:15:31.493Z,17.58
2019-02-25T15:18:17.258Z,17.17
2019-02-25T15:21:04.737Z,17.16
2019-02-25T15:23:51.978Z,16.93
2019-02-25T15:26:42.998Z,16.91
2019-02-25T15:29:25.210Z,16.84
2019-02-25T15:32:10.502Z,16.66
2019-02-25T15:34:57.255Z,16.86
2019-02-25T15:37:44.889Z,17.11
2019-02-25T15:40:32.939Z,17.09
2019-02-25T15:43:21.286Z,16.94
2019-02-25T15:46:07.168Z,16.83
2019-02-25T15:48:52.642Z,16.46
2019-02-25T15:51:41.119Z,16.49
2019-02-25T15:54:30.878Z,16.67
2019-02-25T15:57:15.120Z,16.40
2019-02-25T16:00:00.724Z,16.43
2019-02-25T16:02:48.548Z,16.36
2019-02-25T16:05:34.764Z,16.24
2019-02-25T16:08:23.583Z,16.44
2019-02-25T16:11:09.862Z,16.27
2019-02-25T16:13:56.230Z,16.28
2019-02-25T16:16:43.342Z,16.42
2019-02-25T16:19:40.556Z,16.44
2019-02-25T16:22:16.682Z,16.35
2019-02-25T16:25:03.017Z,16.11
2019-02-25T16:27:54.281Z,16.16
2019-02-25T16:30:41.762Z,16.12
2019-02-25T16:33:28.307Z,16.06
2019-02-25T16:36:14.888Z,16.00
2019-02-25T16:39:05.241Z,15.84
2019-02-25T16:41:47.900Z,15.55
2019-02-25T16:44:33.807Z,15.41
2019-02-25T16:47:32.004Z,15.29
2019-02-25T16:50:07.505Z,15.16
2019-02-25T16:52:53.402Z,15.00
2019-02-25T16:55:40.516Z,14.62
2019-02-25T16:58:27.593Z,14.31
2019-02-25T17:01:14.118Z,14.34
2019-02-25T17:03:59.770Z,13.73
2019-02-25T17:06:45.467Z,13.59
2019-02-25T17:09:32.038Z,13.56
2019-02-25T17:12:21.089Z,13.65
2019-02-25T17:15:09.976Z,13.59
2019-02-25T17:17:58.314Z,13.25
2019-02-25T17:20:45.096Z,12.86
2019-02-25T17:23:32.311Z,12.70
2019-02-25T17:26:19.633Z,12.81
2019-02-25T17:29:05.379Z,12.54
2019-02-25T17:31:52.724Z,12.28
2019-02-25T17:34:39.390Z,12.10
2019-02-25T17:37:26.702Z,12.03
2019-02-25T17:40:13.358Z,12.20
2019-02-25T17:42:58.855Z,11.95
2019-02-25T17:45:44.838Z,11.71
2019-02-25T17:48:31.177Z,11.61
2019-02-25T17:51:18.451Z,11.67
2019-02-25T17:54:05.811Z,11.79
2019-02-25T17:56:52.002Z,11.68
2019-02-25T17:59:39.193Z,11.32
2019-02-25T18:02:29.197Z,11.27
2019-02-25T18:05:16.894Z,10.86
2019-02-25T18:08:05.328Z,11.04
2019-02-25T18:10:52.258Z,10.57
2019-02-25T18:13:39.607Z,10.54
2019-02-25T18:16:24.990Z,10.60
2019-02-25T18:19:11.708Z,10.55
2019-02-25T18:21:58.931Z,10.48
2019-02-25T18:24:44.424Z,10.57
2019-02-25T18:27:29.855Z,10.70
2019-02-25T18:30:17.135Z,10.61
2019-02-25T18:33:05.159Z,10.34
2019-02-25T18:35:50.387Z,10.08
2019-02-25T18:38:35.998Z,9.98
2019-02-25T18:41:23.171Z,10.00
2019-02-25T18:44:10.884Z,10.20
2019-02-25T18:46:56.907Z,9.97
2019-02-25T18:49:42.614Z,9.96
2019-02-25T18:52:29.561Z,10.12
2019-02-25T18:55:17.147Z,10.18
2019-02-25T18:58:05.065Z,10.06
2019-02-25T19:00:52.196Z,9.89
2019-02-25T19:03:38.650Z,9.61
2019-02-25T19:06:25.623Z,9.66
2019-02-25T19:09:22.775Z,9.19
2019-02-25T19:12:10.687Z,9.37
2019-02-25T19:14:57.679Z,9.55
2019-02-25T19:17:45.754Z,9.55
2019-02-25T19:20:31.900Z,9.40
2019-02-25T19:23:17.582Z,9.02
2019-02-25T19:26:03.220Z,9.16
2019-02-25T19:28:50.195Z,8.85
2019-02-25T19:31:36.936Z,8.53
2019-02-25T19:34:23.241Z,8.77
2019-02-25T19:37:12.046Z,8.96
2019-02-25T19:39:57.559Z,8.87
2019-02-25T19:42:47.302Z,8.52
2019-02-25T19:45:30.766Z,8.70
2019-02-25T19:48:19.242Z,8.49
2019-02-25T19:51:06.234Z,8.58
2019-02-25T19:53:51.896Z,8.73
2019-02-25T19:56:37.751Z,8.63
2019-02-25T19:59:26.853Z,8.81
2019-02-25T20:02:13.881Z,8.65
2019-02-25T20:05:00.667Z,8.32
2019-02-25T20:07:47.586Z,8.32
2019-02-25T20:10:34.133Z,8.27
2019-02-25T20:13:22.303Z,8.28
2019-02-25T20:16:20.409Z,8.44
2019-02-25T20:19:06.799Z,8.54
2019-02-25T20:21:54.613Z,8.46
2019-02-25T20:24:44.144Z,8.58
2019-02-25T20:27:30.229Z,8.48
2019-02-25T20:30:16.381Z,8.61
2019-02-25T20:33:03.319Z,8.15
2019-02-25T20:35:53.062Z,7.83
2019-02-25T20:38:37.754Z,8.00
2019-02-25T20:41:27.130Z,8.33
2019-02-25T20:44:14.453Z,8.50
2019-02-25T20:47:01.957Z,8.07
2019-02-25T20:49:51.509Z,7.82
2019-02-25T20:52:40.419Z,8.09
2019-02-25T20:55:27.673Z,7.94
2019-02-25T20:58:16.217Z,7.75
2019-02-25T21:01:05.272Z,7.93
2019-02-25T21:03:51.055Z,7.90
2019-02-25T21:06:39.180Z,7.79
2019-02-25T21:09:25.587Z,7.67
2019-02-25T21:12:13.244Z,7.53
2019-02-25T21:14:59.126Z,7.93
2019-02-25T21:17:45.288Z,7.69
2019-02-25T21:20:31.489Z,7.33
2019-02-25T21:23:17.317Z,7.22
2019-02-25T21:26:06.305Z,7.44
2019-02-25T21:28:56.055Z,7.42
2019-02-25T21:31:43.137Z,7.41
2019-02-25T21:34:29.170Z,7.36
2019-02-25T21:37:15.594Z,7.38
2019-02-25T21:40:03.388Z,7.26
2019-02-25T21:42:51.254Z,7.32
2019-02-25T21:45:36.340Z,7.45
2019-02-25T21:48:25.064Z,7.18
2019-02-25T21:51:11.868Z,7.30
2019-02-25T21:53:58.092Z,7.20
2019-02-25T21:56:44.747Z,7.30
2019-02-25T21:59:32.232Z,7.34
2019-02-25T22:02:17.683Z,7.13
2019-02-25T22:05:07.917Z,7.56
2019-02-25T22:07:54.492Z,7.75
2019-02-25T22:10:42.042Z,6.85
2019-02-25T22:13:27.906Z,7.10
2019-02-25T22:16:13.563Z,7.36
2019-02-25T22:18:58.930Z,7.25
2019-02-25T22:21:45.138Z,7.02
2019-02-25T22:24:32.081Z,6.84
2019-02-25T22:27:18.910Z,6.82
2019-02-25T22:30:09.187Z,6.88
2019-02-25T22:32:55.124Z,7.08
2019-02-25T22:35:42.482Z,6.90
2019-02-25T22:38:28.243Z,6.66
2019-02-25T22:41:13.715Z,6.58
2019-02-25T22:43:59.967Z,6.40
2019-02-25T22:46:46.783Z,6.59
2019-02-25T22:49:32.555Z,6.72
2019-02-25T22:52:21.895Z,6.72
2019-02-25T22:55:09.865Z,6.54
2019-02-25T22:57:54.242Z,6.80
2019-02-25T23:00:51.570Z,6.56
2019-02-25T23:03:40.970Z,6.52
2019-02-25T23:06:25.477Z,6.73
2019-02-25T23:09:14.145Z,6.71
2019-02-25T23:11:59.746Z,6.71
2019-02-25T23:14:45.162Z,6.71
2019-02-25T23:17:33.060Z,6.61
2019-02-25T23:20:18.217Z,6.61
2019-02-25T23:23:06.519Z,6.83
2019-02-25T23:25:53.262Z,6.91
2019-02-25T23:28:38.987Z,6.66
2019-02-25T23:31:24.848Z,6.88
2019-02-25T23:34:12.672Z,6.67
2019-02-25T23:36:57.931Z,6.59
2019-02-25T23:39:44.846Z,6.64
2019-02-25T23:42:33.000Z,6.70
2019-02-25T23:45:20.476Z,6.76
2019-02-25T23:48:06.338Z,6.60
2019-02-25T23:50:54.956Z,6.60
2019-02-25T23:53:40.502Z,6.78
2019-02-25T23:56:27.429Z,6.78
2019-02-25T23:59:14.817Z,7.02
